Time;durP1;ratioP1;P1;durP2;ratioP2;P2;SDS_P1;SDS_P2;PMS_P1;PMS_P2;Temp;Humidity;BMP_temperature;BMP_pressure;BME280_temperature;BME280_humidity;BME280_pressure;Samples;Min_cycle;Max_cycle;Signal;HPM_P1;HPM_P2
2021/08/10 00:02:00;;;;;;;3.75;3.45;;;14.50;99.90;;;15.42;80.48;98209.19;5159001;28;20421;-77
2021/08/10 00:04:34;;;;;;;3.97;3.63;;;14.50;99.90;;;15.36;82.28;98219.22;5164915;28;20650;-77
2021/08/10 00:07:07;;;;;;;4.03;3.67;;;14.50;99.90;;;15.35;81.53;98214.91;5162852;28;20203;-77
2021/08/10 00:09:40;;;;;;;4.22;3.72;;;14.40;99.90;;;15.37;81.30;98213.28;5165185;28;20212;-77
2021/08/10 00:12:13;;;;;;;3.78;3.47;;;14.40;99.90;;;15.35;81.11;98217.47;5165138;28;20576;-77
2021/08/10 00:14:46;;;;;;;4.22;3.58;;;14.30;99.90;;;15.30;81.63;98214.69;5166186;28;20199;-77
2021/08/10 00:17:21;;;;;;;5.10;3.70;;;14.30;99.90;;;15.28;81.26;98206.00;5165304;28;20294;-77
2021/08/10 00:19:54;;;;;;;4.20;3.70;;;14.30;99.90;;;15.27;81.14;98209.41;5164670;28;20309;-78
2021/08/10 00:22:27;;;;;;;4.10;3.78;;;14.30;99.90;;;15.23;81.49;98210.97;5166031;28;20207;-77
2021/08/10 00:25:00;;;;;;;4.00;3.70;;;14.30;99.90;;;15.22;81.32;98206.66;5164830;28;20682;-77
2021/08/10 00:27:34;;;;;;;5.13;3.78;;;14.20;99.90;;;15.18;81.21;98204.72;5165067;28;20234;-77
2021/08/10 00:30:08;;;;;;;4.30;3.90;;;14.20;99.90;;;15.12;81.68;98207.03;5165453;28;20601;-77
2021/08/10 00:32:43;;;;;;;4.05;3.53;;;14.20;99.90;;;15.13;81.62;98211.38;5164238;28;20227;-77
2021/08/10 00:35:16;;;;;;;4.15;3.83;;;14.20;99.90;;;15.14;81.68;98207.09;5164742;28;20718;-77
2021/08/10 00:37:49;;;;;;;4.30;4.00;;;14.20;99.90;;;15.11;82.98;98200.13;5157533;28;20198;-77
2021/08/10 00:40:23;;;;;;;4.60;3.67;;;14.30;99.90;;;15.12;82.72;98199.31;5165008;28;20215;-77
2021/08/10 00:42:56;;;;;;;4.18;3.88;;;14.30;99.90;;;15.13;81.59;98201.06;5165656;28;20295;-77
2021/08/10 00:45:29;;;;;;;3.58;3.28;;;14.20;99.90;;;15.07;81.86;98200.78;5165794;28;20325;-77
2021/08/10 00:48:04;;;;;;;4.40;4.00;;;14.20;99.90;;;15.03;82.41;98196.34;5164642;28;20250;-77
2021/08/10 00:50:37;;;;;;;3.88;3.58;;;14.10;99.90;;;15.04;82.12;98191.25;5164858;28;20223;-77
2021/08/10 00:53:10;;;;;;;4.28;3.92;;;14.10;99.90;;;15.03;82.76;98189.50;5165297;28;20309;-76
2021/08/10 00:55:43;;;;;;;4.50;4.07;;;14.10;99.90;;;15.04;82.27;98198.09;5163793;28;20201;-77
2021/08/10 00:58:17;;;;;;;4.10;3.80;;;14.10;99.90;;;15.02;81.90;98197.13;5165133;28;20286;-77
2021/08/10 01:00:50;;;;;;;4.35;3.95;;;14.10;99.90;;;14.94;82.04;98194.22;5164711;28;20226;-77
2021/08/10 01:03:25;;;;;;;4.07;3.67;;;14.00;99.90;;;14.93;82.34;98195.03;5165161;28;20195;-77
2021/08/10 01:05:59;;;;;;;4.05;3.72;;;14.00;99.90;;;14.87;82.58;98194.75;5161879;28;20217;-77
2021/08/10 01:08:49;;;;;;;4.40;4.00;;;13.90;99.90;;;14.81;82.36;98192.78;5164960;28;20282;-77
2021/08/10 01:11:32;;;;;;;4.07;3.67;;;13.90;99.90;;;14.79;83.54;98189.28;5160590;28;20307;-77
2021/08/10 01:14:15;;;;;;;4.13;3.72;;;13.90;99.90;;;14.80;82.20;98185.00;5162007;28;20302;-77
2021/08/10 01:16:56;;;;;;;4.30;3.70;;;13.90;99.90;;;14.83;83.52;98192.84;5159043;28;20203;-77
2021/08/10 01:20:20;;;;;;;4.40;3.97;;;13.90;99.90;;;14.74;83.50;98188.19;5163978;28;20195;-77
2021/08/10 01:22:56;;;;;;;4.07;3.78;;;13.80;99.90;;;14.71;83.30;98190.59;5139259;28;20283;-77
2021/08/10 01:25:48;;;;;;;4.38;3.97;;;13.80;99.90;;;14.70;83.13;98186.25;5164307;28;20957;-77
2021/08/10 01:28:53;;;;;;;4.25;3.85;;;13.80;99.90;;;14.70;84.00;98182.81;5163517;28;20203;-78
2021/08/10 01:31:33;;;;;;;4.50;4.10;;;13.80;99.90;;;14.67;83.61;98177.53;5162996;28;20219;-77
2021/08/10 01:34:19;;;;;;;4.28;3.95;;;13.80;99.90;;;14.55;83.21;98176.13;5163956;28;20215;-78
2021/08/10 01:36:58;;;;;;;4.65;4.22;;;13.60;99.90;;;14.56;84.69;98172.75;5163226;28;20206;-77
2021/08/10 01:39:33;;;;;;;4.38;3.90;;;13.70;99.90;;;14.57;83.54;98181.38;5160434;28;20286;-77
2021/08/10 01:42:07;;;;;;;4.25;3.80;;;13.70;99.90;;;14.62;83.17;98169.56;5159834;28;20203;-76
2021/08/10 01:44:41;;;;;;;4.93;4.05;;;13.70;99.90;;;14.59;83.36;98166.88;5162262;28;20578;-77
2021/08/10 01:47:16;;;;;;;3.90;3.60;;;13.70;99.90;;;14.54;83.31;98161.53;5163220;28;20203;-77
2021/08/10 01:49:52;;;;;;;3.78;3.47;;;13.60;99.90;;;14.52;83.78;98163.13;5164135;28;20214;-77
2021/08/10 01:52:25;;;;;;;4.35;3.95;;;13.70;99.90;;;14.47;84.81;98164.56;5160709;28;20317;-77
2021/08/10 01:54:59;;;;;;;4.55;4.15;;;13.60;99.90;;;14.54;84.29;98161.53;5164527;28;20206;-77
2021/08/10 01:57:33;;;;;;;4.53;4.15;;;13.70;99.90;;;14.48;83.74;98170.59;5162666;28;20211;-77
2021/08/10 02:00:08;;;;;;;4.95;4.20;;;13.50;99.90;;;14.43;84.84;98166.13;5164097;28;20315;-77
2021/08/10 02:02:44;;;;;;;4.35;4.05;;;13.50;99.90;;;14.41;85.20;98170.31;5163711;28;20283;-77
2021/08/10 02:05:17;;;;;;;4.22;3.78;;;13.60;99.90;;;14.42;85.18;98168.63;5163363;28;20198;-77
2021/08/10 02:07:51;;;;;;;4.75;4.28;;;13.60;99.90;;;14.42;85.55;98171.19;5161392;28;20211;-77
2021/08/10 02:10:24;;;;;;;3.88;3.58;;;13.60;99.90;;;14.42;84.99;98166.94;5162447;28;20333;-77
2021/08/10 02:12:59;;;;;;;4.50;4.20;;;13.60;99.90;;;14.41;84.94;98170.31;5164204;28;20221;-76
2021/08/10 02:15:33;;;;;;;4.18;3.88;;;13.50;99.90;;;14.42;83.96;98172.09;5163951;28;20212;-77
2021/08/10 02:18:10;;;;;;;4.13;3.83;;;13.50;99.90;;;14.39;84.51;98165.91;5163759;28;20205;-77
2021/08/10 02:20:48;;;;;;;4.30;3.90;;;13.50;99.90;;;14.35;84.27;98154.59;5163177;28;20241;-77
2021/08/10 02:23:24;;;;;;;4.53;4.13;;;13.40;99.90;;;14.36;83.49;98160.63;5168117;28;20250;-76
2021/08/10 02:26:00;;;;;;;4.40;4.05;;;13.40;99.90;;;14.29;84.12;98154.31;5167724;28;20646;-77
2021/08/10 02:28:36;;;;;;;4.63;3.53;;;13.30;99.90;;;14.23;84.45;98161.75;5167206;28;20195;-77
2021/08/10 02:31:09;;;;;;;4.28;3.97;;;13.30;99.90;;;14.28;84.94;98162.84;5156319;28;20304;-77
2021/08/10 02:33:45;;;;;;;4.88;4.32;;;13.40;99.90;;;14.27;84.35;98145.63;5173829;28;20219;-77
2021/08/10 02:36:20;;;;;;;5.47;4.97;;;13.40;99.90;;;14.22;85.94;98152.25;5165883;28;20199;-77
2021/08/10 02:38:54;;;;;;;4.57;4.28;;;13.40;99.90;;;14.25;86.01;98144.72;5159755;28;20293;-77
2021/08/10 02:41:27;;;;;;;4.82;4.13;;;13.40;99.90;;;14.27;84.83;98147.34;5167495;28;20694;-77
2021/08/10 02:44:00;;;;;;;4.55;4.13;;;13.40;99.90;;;14.21;85.85;98140.22;5168078;28;20191;-77
2021/08/10 02:46:34;;;;;;;4.40;4.10;;;13.30;99.90;;;14.23;85.20;98138.59;5167827;28;20294;-77
2021/08/10 02:49:10;;;;;;;4.53;4.13;;;13.30;99.90;;;14.28;85.86;98142.28;5163297;28;20217;-77
2021/08/10 02:51:43;;;;;;;4.53;4.07;;;13.40;99.90;;;14.27;85.62;98149.91;5167145;28;20222;-77
2021/08/10 02:54:16;;;;;;;4.60;4.25;;;13.30;99.90;;;14.20;85.47;98143.59;5159022;28;20293;-77
2021/08/10 02:56:56;;;;;;;4.40;4.10;;;13.30;99.90;;;14.21;85.38;98145.34;5166467;28;20282;-77
2021/08/10 02:59:37;;;;;;;4.85;4.40;;;13.30;99.90;;;14.15;85.45;98135.66;5166512;28;20294;-77
2021/08/10 03:02:17;;;;;;;4.32;3.92;;;13.30;99.90;;;14.11;84.08;98149.19;5166432;28;20213;-77
2021/08/10 03:04:56;;;;;;;4.53;4.22;;;13.20;99.90;;;14.11;84.61;98148.31;5160481;28;20539;-77
2021/08/10 03:07:31;;;;;;;4.80;4.18;;;13.20;99.90;;;14.08;84.74;98150.72;5165409;28;20211;-78
2021/08/10 03:10:08;;;;;;;4.22;3.92;;;13.20;99.90;;;14.12;84.90;98150.06;5166611;28;20716;-77
2021/08/10 03:12:47;;;;;;;4.22;3.92;;;13.20;99.90;;;14.08;84.93;98153.28;5166779;28;20194;-77
2021/08/10 03:15:24;;;;;;;5.03;4.43;;;13.20;99.90;;;14.05;85.55;98160.84;5165858;28;20203;-77
2021/08/10 03:18:01;;;;;;;5.07;4.57;;;13.20;99.90;;;14.02;85.63;98168.41;5159475;28;20286;-77
2021/08/10 03:20:39;;;;;;;4.28;3.90;;;13.20;99.90;;;14.00;85.57;98168.34;5166529;28;20257;-77
2021/08/10 03:23:15;;;;;;;4.85;4.28;;;13.10;99.90;;;13.95;85.41;98168.13;5167101;28;20286;-77
2021/08/10 03:25:50;;;;;;;4.40;4.03;;;13.00;99.90;;;13.98;85.93;98160.56;5166490;28;20584;-77
2021/08/10 03:28:26;;;;;;;4.35;3.95;;;13.10;99.90;;;13.94;85.79;98176.66;5166814;28;20205;-77
2021/08/10 03:31:00;;;;;;;5.15;4.32;;;13.10;99.90;;;13.93;85.07;98169.72;5165157;28;20310;-78
2021/08/10 03:33:34;;;;;;;4.57;4.20;;;13.10;99.90;;;13.97;85.36;98170.78;5166752;28;20238;-77
2021/08/10 03:36:09;;;;;;;5.28;4.88;;;13.10;99.90;;;13.97;86.03;98166.50;5165009;28;20206;-77
2021/08/10 03:38:42;;;;;;;4.80;4.40;;;13.10;99.90;;;14.05;85.80;98164.31;5166763;28;20670;-77
2021/08/10 03:41:16;;;;;;;4.40;4.00;;;13.10;99.90;;;14.02;85.73;98159.03;5157672;28;20681;-77
2021/08/10 03:43:50;;;;;;;4.80;4.40;;;13.10;99.90;;;13.98;85.18;98157.09;5165501;28;20435;-77
2021/08/10 03:46:25;;;;;;;4.63;4.22;;;13.10;99.90;;;13.91;85.84;98153.38;5166997;28;20206;-77
2021/08/10 03:48:58;;;;;;;4.30;4.00;;;13.00;99.90;;;13.94;84.94;98156.09;5165684;28;20585;-77
2021/08/10 03:51:36;;;;;;;9.40;8.60;;;13.00;99.90;;;13.91;85.67;98152.50;5165610;28;20219;-77
2021/08/10 03:54:09;;;;;;;6.13;5.63;;;13.00;99.90;;;13.88;85.32;98149.78;5165987;28;20218;-77
2021/08/10 03:56:46;;;;;;;4.35;4.05;;;12.90;99.90;;;13.88;85.01;98148.09;5166018;28;20209;-76
2021/08/10 03:59:20;;;;;;;4.35;4.00;;;12.90;99.90;;;13.81;85.39;98151.16;5164557;28;20581;-77
2021/08/10 04:01:55;;;;;;;4.38;4.10;;;12.90;99.90;;;13.78;85.29;98156.13;5164295;28;20223;-77
2021/08/10 04:04:29;;;;;;;5.03;4.18;;;12.80;99.90;;;13.78;86.03;98148.44;5164920;28;20191;-77
2021/08/10 04:07:08;;;;;;;4.38;4.07;;;12.80;99.90;;;13.71;86.44;98151.53;5164781;28;20203;-77
2021/08/10 04:09:42;;;;;;;5.70;4.40;;;12.80;99.90;;;13.69;86.56;98158.25;5161350;28;20298;-77
2021/08/10 04:12:16;;;;;;;5.35;4.95;;;12.80;99.90;;;13.65;85.68;98156.31;5165970;28;20580;-77
2021/08/10 04:14:49;;;;;;;5.63;5.07;;;12.70;99.90;;;13.63;87.01;98152.81;5157606;28;20596;-77
2021/08/10 04:17:26;;;;;;;5.70;5.20;;;12.80;99.90;;;13.55;86.02;98162.69;5164774;28;20204;-77
2021/08/10 04:19:59;;;;;;;5.18;4.70;;;12.60;99.90;;;13.46;87.17;98160.56;5166033;28;20217;-77
2021/08/10 04:22:34;;;;;;;4.57;4.28;;;12.60;99.90;;;13.52;87.53;98155.72;5165032;28;20217;-77
2021/08/10 04:25:08;;;;;;;4.63;4.32;;;12.70;99.90;;;13.59;87.26;98156.03;5166086;28;20658;-77
2021/08/10 04:27:41;;;;;;;5.07;4.72;;;12.70;99.90;;;13.59;88.07;98163.72;5165422;28;20580;-77
2021/08/10 04:30:15;;;;;;;5.15;4.85;;;12.80;99.90;;;13.61;87.22;98164.69;5164685;28;20230;-77
2021/08/10 04:32:48;;;;;;;5.32;4.70;;;12.80;99.90;;;13.67;87.22;98160.72;5164030;28;20748;-77
2021/08/10 04:35:21;;;;;;;4.93;4.55;;;12.80;99.90;;;13.74;87.68;98167.09;5164177;28;20219;-77
2021/08/10 04:37:56;;;;;;;5.60;5.10;;;13.00;99.90;;;13.84;87.79;98168.41;5164159;28;20321;-77
2021/08/10 04:40:29;;;;;;;5.22;4.80;;;13.00;99.90;;;13.95;87.29;98169.81;5164794;28;20222;-77
2021/08/10 04:43:02;;;;;;;4.22;3.92;;;13.10;99.90;;;14.02;86.51;98173.56;5165209;28;20210;-77
2021/08/10 04:45:36;;;;;;;5.25;4.32;;;13.20;99.90;;;14.04;85.93;98182.22;5163993;28;20550;-77
2021/08/10 04:48:09;;;;;;;6.03;4.60;;;13.10;99.90;;;14.05;86.44;98184.88;5164756;28;20195;-77
2021/08/10 04:50:43;;;;;;;4.80;4.40;;;13.10;99.90;;;14.11;86.36;98189.44;5165334;28;20242;-77
2021/08/10 04:53:17;;;;;;;4.97;4.40;;;13.20;99.90;;;14.16;85.33;98187.94;5164482;28;20229;-77
2021/08/10 04:55:50;;;;;;;4.47;4.18;;;13.30;99.90;;;14.18;85.30;98187.22;5164251;28;20413;-77
2021/08/10 04:58:23;;;;;;;4.60;4.25;;;13.30;99.90;;;14.27;85.93;98191.03;5157577;28;20286;-77
2021/08/10 05:00:57;;;;;;;4.35;3.95;;;13.40;99.90;;;14.30;86.14;98191.19;5162721;28;20223;-77
2021/08/10 05:03:30;;;;;;;4.70;4.30;;;13.50;99.90;;;14.38;84.78;98183.03;5165112;28;20563;-77
2021/08/10 05:06:05;;;;;;;4.32;3.92;;;13.50;99.90;;;14.41;84.47;98190.00;5164133;28;20191;-77
2021/08/10 05:08:40;;;;;;;4.55;4.15;;;13.50;99.90;;;14.44;84.72;98185.00;5163598;28;20290;-76
2021/08/10 05:11:20;;;;;;;4.50;4.07;;;13.50;99.90;;;14.40;85.49;98194.28;5162867;28;20246;-77
2021/08/10 05:13:53;;;;;;;4.75;4.15;;;13.50;99.90;;;14.36;85.15;98191.47;5165086;28;20670;-77
2021/08/10 05:16:26;;;;;;;5.00;4.50;;;13.50;99.90;;;14.36;86.37;98192.34;5163991;28;20203;-77
2021/08/10 05:18:59;;;;;;;4.68;4.28;;;13.50;99.90;;;14.37;85.28;98189.00;5164520;28;20612;-77
2021/08/10 05:21:33;;;;;;;5.10;4.60;;;13.50;99.90;;;14.35;85.92;98189.72;5155614;28;20295;-77
2021/08/10 05:24:08;;;;;;;4.68;4.25;;;13.50;99.90;;;14.36;84.12;98186.34;5163705;28;20207;-77
2021/08/10 05:26:41;;;;;;;4.78;4.38;;;13.40;99.90;;;14.35;84.40;98194.88;5162675;28;20199;-77
2021/08/10 05:29:14;;;;;;;6.35;5.03;;;13.40;99.90;;;14.33;84.03;98183.63;5163512;28;20210;-77
2021/08/10 05:31:47;;;;;;;4.65;4.25;;;13.40;99.90;;;14.37;84.86;98189.00;5163656;28;20215;-77
2021/08/10 05:34:20;;;;;;;4.65;4.35;;;13.50;99.90;;;14.45;83.78;98185.88;5161963;28;20214;-77
2021/08/10 05:36:53;;;;;;;4.85;4.32;;;13.50;99.90;;;14.47;83.38;98179.13;5168694;28;20310;-77
2021/08/10 05:39:27;;;;;;;4.40;4.10;;;13.50;99.90;;;14.52;84.60;98178.56;5162409;28;20208;-77
2021/08/10 05:42:01;;;;;;;4.72;4.43;;;13.50;99.90;;;14.61;84.90;98178.13;5163614;28;20226;-77
2021/08/10 05:44:34;;;;;;;5.75;4.38;;;13.70;99.90;;;14.67;85.16;98180.97;5163337;28;20294;-77
2021/08/10 05:47:07;;;;;;;4.38;4.07;;;13.70;99.90;;;14.60;84.73;98187.53;5164175;28;20201;-77
2021/08/10 05:49:41;;;;;;;4.97;4.57;;;13.70;99.90;;;14.70;84.17;98191.41;5163152;28;20824;-77
2021/08/10 05:52:14;;;;;;;4.65;4.35;;;13.70;99.90;;;14.77;84.58;98195.16;5162837;28;20718;-77
2021/08/10 05:54:48;;;;;;;5.07;4.63;;;13.80;99.90;;;14.85;84.18;98207.56;5164367;28;20225;-77
2021/08/10 05:57:21;;;;;;;5.05;4.55;;;13.90;99.90;;;14.91;84.82;98204.38;5163635;28;20202;-77
2021/08/10 05:59:54;;;;;;;5.68;4.40;;;14.00;99.90;;;14.96;84.62;98208.03;5157783;28;20334;-77
2021/08/10 06:02:30;;;;;;;5.53;4.70;;;14.10;99.90;;;15.13;84.48;98210.50;5164552;28;20203;-77
2021/08/10 06:05:05;;;;;;;5.45;4.65;;;14.20;99.90;;;15.18;84.96;98214.16;5164245;28;20199;-77
2021/08/10 06:07:38;;;;;;;4.97;4.63;;;14.30;99.90;;;15.32;83.24;98213.94;5164022;28;20630;-78
2021/08/10 06:10:13;;;;;;;4.72;4.40;;;14.40;99.90;;;15.40;83.77;98211.72;5161583;28;20231;-77
2021/08/10 06:12:46;;;;;;;5.00;4.55;;;14.50;99.90;;;15.46;83.46;98209.41;5164359;28;20206;-78
2021/08/10 06:15:20;;;;;;;4.85;4.40;;;14.60;99.90;;;15.41;83.48;98215.19;5165300;28;20605;-77
2021/08/10 06:17:53;;;;;;;4.30;3.70;;;14.60;99.90;;;15.56;82.76;98218.41;5162598;28;20226;-77
2021/08/10 06:20:26;;;;;;;4.45;4.05;;;14.60;99.90;;;15.59;82.29;98212.50;5163873;28;20306;-78
2021/08/10 06:23:01;;;;;;;4.70;4.30;;;14.60;99.90;;;15.51;82.53;98214.78;5162654;28;20294;-77
2021/08/10 06:25:38;;;;;;;5.15;4.72;;;14.50;99.90;;;15.55;81.91;98212.38;5163102;28;20201;-78
2021/08/10 06:28:13;;;;;;;4.85;4.45;;;14.60;99.90;;;15.59;82.36;98205.66;5156632;28;20285;-77
2021/08/10 06:30:46;;;;;;;5.05;4.38;;;14.60;99.90;;;15.64;82.46;98204.16;5162910;28;20299;-77
2021/08/10 06:33:19;;;;;;;4.60;4.22;;;14.70;99.90;;;15.70;81.47;98204.44;5164251;28;20199;-77
2021/08/10 06:35:52;;;;;;;5.30;4.90;;;14.70;99.90;;;15.76;81.89;98207.28;5161647;28;20310;-77
2021/08/10 06:38:25;;;;;;;4.70;4.35;;;14.80;99.90;;;15.88;81.78;98206.03;5160467;28;20558;-77
2021/08/10 06:41:00;;;;;;;5.00;4.50;;;14.90;99.90;;;15.93;81.32;98209.69;5161078;28;20326;-77
2021/08/10 06:43:33;;;;;;;5.70;5.00;;;15.00;99.90;;;15.98;81.75;98211.66;5163010;28;20293;-77
2021/08/10 06:46:06;;;;;;;5.10;4.60;;;15.00;99.90;;;16.17;81.34;98209.84;5161953;28;20196;-78
2021/08/10 06:48:39;;;;;;;6.03;5.18;;;15.20;99.90;;;16.28;81.47;98187.94;5161100;28;20216;-81
2021/08/10 06:51:13;;;;;;;5.55;5.05;;;15.30;99.90;;;16.36;80.86;98195.97;5165880;28;20254;-80
2021/08/10 06:53:46;;;;;;;5.57;5.07;;;15.50;99.90;;;16.59;79.98;98209.75;5167382;28;20204;-80
2021/08/10 06:56:26;;;;;;;5.13;4.68;;;15.60;99.90;;;16.74;79.69;98209.47;5167869;28;20222;-80
2021/08/10 06:58:59;;;;;;;5.18;4.55;;;15.80;99.90;;;16.87;80.02;98209.16;5158907;28;20223;-81
2021/08/10 07:01:35;;;;;;;4.45;4.15;;;15.90;99.90;;;16.99;79.61;98204.44;5163164;28;20310;-82
2021/08/10 07:04:17;;;;;;;4.55;4.15;;;15.90;99.90;;;17.19;79.23;98204.31;5167114;28;20206;-81
2021/08/10 07:06:51;;;;;;;4.53;4.20;;;16.20;99.90;;;17.36;78.67;98203.22;5167697;28;20282;-81
2021/08/10 07:09:24;;;;;;;4.70;4.30;;;16.30;99.90;;;17.73;77.92;98191.59;5171566;28;20282;-82
2021/08/10 07:12:03;;;;;;;4.43;4.03;;;16.60;99.90;;;18.24;75.22;98184.69;5177526;28;20246;-79
2021/08/10 07:14:36;;;;;;;4.47;4.13;;;17.10;99.90;;;18.70;72.49;98185.25;5183584;28;20211;-79
2021/08/10 07:17:10;;;;;;;5.70;4.50;;;17.50;99.90;;;18.92;71.53;98181.63;5178088;28;20455;-80
2021/08/10 07:19:43;;;;;;;5.65;4.85;;;17.70;99.90;;;18.96;70.33;98187.78;5171028;28;20306;-81
2021/08/10 07:22:17;;;;;;;4.55;4.25;;;17.70;99.90;;;19.02;71.52;98198.31;5175281;28;20215;-80
2021/08/10 07:25:10;;;;;;;4.90;4.40;;;17.80;99.90;;;19.15;70.67;98177.13;5169595;28;20226;-80
2021/08/10 07:27:44;;;;;;;6.93;4.60;;;17.90;99.90;;;19.32;70.99;98181.06;5169106;28;20195;-80
2021/08/10 07:30:18;;;;;;;4.93;4.40;;;18.10;99.90;;;19.36;71.23;98180.28;5174568;28;20326;-80
2021/08/10 07:32:51;;;;;;;4.85;4.47;;;18.30;99.90;;;19.49;71.00;98180.66;5172361;28;20211;-81
2021/08/10 07:35:25;;;;;;;4.47;4.07;;;18.50;99.90;;;19.93;68.84;98179.22;5171058;28;20246;-80
2021/08/10 07:37:59;;;;;;;4.15;3.85;;;18.70;99.90;;;20.58;66.80;98176.50;5171647;28;20206;-80
2021/08/10 07:40:32;;;;;;;4.70;3.97;;;19.20;99.90;;;21.54;62.81;98171.53;5167632;28;20250;-81
2021/08/10 07:43:22;;;;;;;4.32;3.92;;;19.90;99.90;;;22.28;60.37;98158.09;5166593;28;20200;-80
2021/08/10 07:45:56;;;;;;;4.25;3.95;;;20.50;99.90;;;22.77;57.46;98160.53;5169494;28;20199;-81
2021/08/10 07:48:30;;;;;;;4.22;3.80;;;21.00;99.90;;;22.86;56.73;98153.72;5170839;28;20210;-80
2021/08/10 07:51:04;;;;;;;3.78;3.55;;;21.10;99.90;;;23.02;56.73;98157.44;5170676;28;20253;-81
2021/08/10 07:53:40;;;;;;;4.93;3.70;;;21.30;99.90;;;23.01;56.47;98160.03;5170562;28;20643;-82
2021/08/10 07:56:13;;;;;;;4.20;3.90;;;21.20;99.90;;;22.54;57.72;98165.44;5172118;28;20254;-81
2021/08/10 07:58:49;;;;;;;4.03;3.70;;;21.00;99.90;;;22.61;58.47;98180.31;5165344;28;20286;-82
2021/08/10 08:01:23;;;;;;;3.97;3.67;;;21.00;99.90;;;22.58;58.74;98159.44;5171132;28;20226;-82
2021/08/10 08:04:00;;;;;;;4.03;3.45;;;21.10;99.90;;;22.78;58.60;98146.63;5170358;28;20203;-81
2021/08/10 08:06:34;;;;;;;3.75;3.55;;;21.30;99.90;;;23.29;57.07;98149.06;5171550;28;20287;-81
2021/08/10 08:09:07;;;;;;;3.65;3.35;;;21.90;99.90;;;23.58;56.07;98138.06;5174786;28;20191;-81
2021/08/10 08:11:43;;;;;;;3.60;3.30;;;22.20;99.90;;;23.90;54.51;98134.91;5169547;28;20222;-80
2021/08/10 08:14:23;;;;;;;3.60;3.30;;;22.50;99.90;;;24.33;54.09;98138.72;5167988;28;20230;-80
2021/08/10 08:16:57;;;;;;;3.95;3.45;;;23.00;99.90;;;24.81;52.41;98126.84;5163087;28;20211;-79
2021/08/10 08:19:30;;;;;;;4.70;3.33;;;23.50;99.90;;;25.21;50.79;98128.75;5168886;28;20482;-79
2021/08/10 08:25:15;;;;;;;3.47;3.10;;;23.80;99.90;;;25.46;50.70;98130.56;5167550;28;20650;-84
2021/08/10 08:28:08;;;;;;;3.00;2.80;;;23.90;99.90;;;25.52;49.84;98120.09;5152825;28;20194;-83
2021/08/10 08:31:03;;;;;;;3.20;2.90;;;23.90;99.90;;;25.53;48.42;98121.00;5161746;28;20218;-83
2021/08/10 08:33:51;;;;;;;3.15;2.85;;;23.80;98.60;;;25.59;48.04;98121.00;5163510;28;20242;-81
2021/08/10 08:36:39;;;;;;;3.28;3.08;;;23.80;98.90;;;25.81;47.79;98114.91;5167566;28;20226;-82
2021/08/10 08:39:17;;;;;;;2.78;2.58;;;24.10;98.10;;;25.96;46.38;98116.69;5161407;28;20217;-81
2021/08/10 08:45:08;;;;;;;3.25;2.95;;;24.50;97.50;;;26.34;45.46;98118.41;5163246;28;20198;-82
2021/08/10 08:48:07;;;;;;;3.05;2.75;;;24.50;97.00;;;26.28;45.26;98123.66;5170218;28;20194;-83
2021/08/10 08:54:15;;;;;;;2.92;2.60;;;24.40;96.50;;;25.88;46.04;98117.56;5098352;29;20208;-83
2021/08/10 09:00:23;;;;;;;3.45;2.60;;;23.90;97.20;;;25.98;46.01;98114.06;5101156;29;20232;-84
2021/08/10 09:03:50;;;;;;;;;;;;;;;;;;;;;
2021/08/10 09:09:57;;;;;;;;;;;;;;;;;;;;;
2021/08/10 09:15:44;;;;;;;2.90;2.70;;;24.00;97.20;;;26.11;46.01;98128.91;5163929;28;20202;-83
2021/08/10 09:18:34;;;;;;;2.85;2.63;;;24.30;97.00;;;26.25;45.54;98132.38;5161187;28;20221;-79
2021/08/10 09:24:53;;;;;;;3.08;2.70;;;24.50;96.50;;;26.35;44.73;98124.50;5162377;28;20604;-85
2021/08/10 09:37:19;;;;;;;;;;;;;;;;;;;;;
2021/08/10 09:40:30;;;;;;;3.58;2.55;;;24.90;95.00;;;26.80;44.14;98134.06;5024983;23;20241;-59
2021/08/10 09:43:32;;;;;;;3.35;2.60;;;24.80;95.80;;;26.66;44.32;98133.22;5181435;28;20199;-60
2021/08/10 09:46:15;;;;;;;3.00;2.70;;;24.90;95.40;;;26.63;44.31;98135.84;5181694;28;20633;-60
2021/08/10 09:48:57;;;;;;;2.63;2.33;;;24.70;95.60;;;26.61;44.29;98134.97;5182571;28;20209;-60
2021/08/10 09:51:32;;;;;;;3.83;2.47;;;24.80;95.40;;;26.58;44.44;98133.22;5176379;28;20201;-60
2021/08/10 09:54:07;;;;;;;3.30;2.70;;;24.70;95.50;;;26.58;43.87;98132.34;5181727;28;20292;-60
2021/08/10 09:56:50;;;;;;;2.78;2.45;;;24.70;95.10;;;26.57;44.34;98135.88;5182246;28;20296;-60
2021/08/10 09:59:25;;;;;;;2.67;2.47;;;24.60;95.60;;;26.35;44.96;98130.63;5188679;28;20220;-61
2021/08/10 10:01:59;;;;;;;2.40;2.20;;;24.50;95.90;;;26.22;45.25;98129.78;5185597;28;20236;-60
2021/08/10 10:04:33;;;;;;;2.92;2.67;;;24.30;95.80;;;26.28;45.14;98132.38;5181629;28;20210;-62
2021/08/10 10:07:11;;;;;;;3.08;2.55;;;24.50;95.90;;;26.27;45.48;98138.50;5199108;28;20276;-61
2021/08/10 10:09:45;;;;;;;3.53;2.45;;;24.60;95.70;;;26.50;43.58;98135.88;5183174;28;20197;-61
2021/08/10 10:12:23;;;;;;;2.92;2.50;;;24.60;94.70;;;26.40;43.94;98131.50;5187769;28;20652;-60
2021/08/10 10:15:01;;;;;;;3.42;2.50;;;24.50;95.20;;;26.26;45.42;98130.63;5181454;28;20214;-61
2021/08/10 10:17:37;;;;;;;3.85;2.50;;;24.60;95.70;;;26.40;44.72;98128.88;5173205;28;20309;-60
2021/08/10 10:20:12;;;;;;;2.95;2.47;;;24.80;95.30;;;26.23;46.20;98130.66;5183834;28;20557;-61
2021/08/10 10:22:47;;;;;;;2.65;2.45;;;24.90;95.90;;;26.37;44.47;98123.63;5176952;28;20204;-59
2021/08/10 10:25:25;;;;;;;3.88;2.60;;;24.90;94.80;;;26.54;44.23;98128.00;5183601;28;20678;-60
2021/08/10 10:28:00;;;;;;;2.92;2.55;;;25.00;94.70;;;26.69;44.05;98120.97;5196185;28;20232;-60
2021/08/10 10:30:33;;;;;;;2.78;2.45;;;25.10;94.60;;;26.77;44.74;98120.94;5182659;28;20198;-60
2021/08/10 10:33:08;;;;;;;3.22;2.40;;;25.30;94.70;;;26.95;42.80;98115.63;5186504;28;20243;-60
2021/08/10 10:35:42;;;;;;;3.03;2.60;;;25.20;93.90;;;26.87;43.53;98114.81;5180409;28;20205;-60
2021/08/10 10:38:17;;;;;;;2.75;2.55;;;25.10;94.30;;;26.67;44.99;98125.34;5182296;28;20218;-61
2021/08/10 10:40:54;;;;;;;2.63;2.17;;;25.10;95.00;;;26.71;44.70;98123.59;5187127;28;20729;-61
2021/08/10 10:43:30;;;;;;;2.25;2.05;;;25.30;94.50;;;26.78;43.79;98117.44;5188149;28;20208;-61
2021/08/10 10:46:29;;;;;;;3.17;2.65;;;25.30;94.30;;;26.74;42.99;98120.97;5190435;28;20205;-59
2021/08/10 10:49:03;;;;;;;2.70;2.50;;;25.20;93.70;;;26.91;43.01;98118.28;5191510;28;20293;-60
2021/08/10 10:51:38;;;;;;;2.40;2.20;;;25.30;93.30;;;26.96;41.84;98117.38;5195335;28;20205;-60
2021/08/10 10:54:25;;;;;;;2.88;2.40;;;25.30;92.90;;;27.09;41.82;98115.56;5194223;28;20369;-60
2021/08/10 10:57:01;;;;;;;3.53;2.72;;;25.50;92.90;;;26.91;42.95;98111.28;5186398;28;20764;-60
2021/08/10 10:59:37;;;;;;;2.80;2.60;;;25.40;93.30;;;26.90;42.72;98113.91;5189922;28;20717;-60
2021/08/10 11:02:21;;;;;;;2.83;2.42;;;25.40;93.30;;;26.71;42.44;98110.47;5184581;28;20201;-60
2021/08/10 11:05:23;;;;;;;3.47;2.70;;;25.20;92.90;;;26.63;44.07;98114.88;5194422;28;20695;-60
2021/08/10 11:07:58;;;;;;;4.88;2.63;;;25.20;94.60;;;26.70;43.16;98111.38;5180592;28;20672;-60
2021/08/10 11:10:53;;;;;;;2.78;2.50;;;25.10;93.40;;;26.42;44.99;98100.91;5184150;28;20205;-60
2021/08/10 11:13:39;;;;;;;2.92;2.40;;;25.00;94.70;;;26.51;44.83;98106.16;5183297;28;20234;-60
2021/08/10 11:16:15;;;;;;;2.67;2.47;;;24.90;95.10;;;26.52;44.82;98107.88;5188568;28;20202;-60
2021/08/10 11:18:49;;;;;;;2.90;2.70;;;25.00;95.00;;;26.59;44.24;98105.28;5194898;28;20623;-60
2021/08/10 11:21:26;;;;;;;2.53;2.30;;;25.10;94.30;;;26.54;44.84;98104.41;5184971;28;20216;-60
2021/08/10 11:23:59;;;;;;;2.88;2.60;;;25.10;94.90;;;26.71;44.91;98108.72;5184270;28;20631;-60
2021/08/10 11:26:44;;;;;;;3.28;2.58;;;25.40;94.00;;;26.88;43.58;98113.03;5182818;28;20579;-60
2021/08/10 11:29:43;;;;;;;3.08;2.60;;;25.50;93.60;;;26.92;43.02;98113.00;5191293;28;20198;-60
2021/08/10 11:32:41;;;;;;;2.63;2.42;;;25.50;93.10;;;26.62;43.46;98113.13;5180278;28;20289;-60
2021/08/10 11:35:33;;;;;;;2.67;2.47;;;25.40;93.50;;;26.77;43.51;98109.59;5181147;28;20396;-60
2021/08/10 11:38:13;;;;;;;3.08;2.78;;;25.40;93.40;;;26.80;43.63;98114.81;5182458;28;20217;-59